createdAt,value
2023-01-01T00:02:24.932Z,99530.03
2023-01-01T00:04:51.761Z,99541.28
2023-01-01T00:07:18.650Z,99552.00
2023-01-01T00:10:03.911Z,99558.00
2023-01-01T00:12:32.517Z,99572.34
2023-01-01T00:14:59.347Z,99589.91
2023-01-01T00:17:26.188Z,99614.06
2023-01-01T00:19:52.883Z,99652.06
2023-01-01T00:25:06.934Z,99694.06
2023-01-01T00:27:33.669Z,99703.00
2023-01-01T00:30:00.389Z,99720.63
2023-01-01T00:32:27.460Z,99741.13
2023-01-01T00:34:54.141Z,99758.50
2023-01-01T00:37:20.875Z,99781.66
2023-01-01T00:39:47.640Z,99802.69
2023-01-01T00:42:14.352Z,99816.34
2023-01-01T00:44:41.133Z,99842.16
2023-01-01T00:47:07.848Z,99864.91
2023-01-01T00:49:34.510Z,99886.31
2023-01-01T00:52:01.208Z,99886.31
2023-01-01T00:54:29.165Z,99926.63
2023-01-01T00:56:57.508Z,99947.88
2023-01-01T00:59:28.657Z,99965.56
2023-01-01T01:01:56.075Z,99981.53
2023-01-01T01:04:23.265Z,99995.31
2023-01-01T01:06:50.023Z,100011.94
2023-01-01T01:09:17.063Z,100011.13
2023-01-01T01:11:43.891Z,100025.59
2023-01-01T01:14:10.783Z,100039.84
2023-01-01T01:16:37.602Z,100031.38
2023-01-01T01:19:06.035Z,100057.09
2023-01-01T01:21:36.804Z,100051.03
2023-01-01T01:24:04.109Z,100050.97
2023-01-01T01:26:32.928Z,100083.19
2023-01-01T01:29:00.683Z,100094.41
2023-01-01T01:31:30.458Z,100090.53
2023-01-01T01:33:57.715Z,100118.56
2023-01-01T01:36:25.976Z,100109.63
2023-01-01T01:38:53.310Z,100126.44
2023-01-01T01:41:30.002Z,100135.34
2023-01-01T01:44:02.712Z,100147.88
2023-01-01T01:46:34.812Z,100146.03
2023-01-01T01:49:06.322Z,100146.28
2023-01-01T01:51:39.424Z,100183.47
2023-01-01T01:54:10.952Z,100163.47
2023-01-01T01:56:49.914Z,100166.50
2023-01-01T01:59:19.091Z,100193.69
2023-01-01T02:01:46.376Z,100190.34
2023-01-01T02:04:13.308Z,100198.25
2023-01-01T02:06:40.369Z,100190.91
2023-01-01T02:09:08.840Z,100212.50
2023-01-01T02:11:35.627Z,100218.81
2023-01-01T02:14:03.515Z,100218.69
2023-01-01T02:16:39.636Z,100219.94
2023-01-01T02:19:26.360Z,100233.03
2023-01-01T02:22:02.414Z,100239.81
2023-01-01T02:24:41.160Z,100230.16
2023-01-01T02:27:23.567Z,100264.09
2023-01-01T02:30:10.695Z,100256.50
2023-01-01T02:32:49.974Z,100261.06
2023-01-01T02:35:35.427Z,100269.28
2023-01-01T02:38:26.380Z,100265.41
2023-01-01T02:40:59.708Z,100281.66
2023-01-01T02:43:26.430Z,100249.19
2023-01-01T02:45:54.080Z,100250.03
2023-01-01T02:48:47.091Z,100267.84
2023-01-01T02:51:22.820Z,100273.00
2023-01-01T02:54:14.098Z,100279.91
2023-01-01T02:56:45.680Z,100268.25
2023-01-01T03:00:08.471Z,100272.28
2023-01-01T03:02:51.244Z,100277.47
2023-01-01T03:05:33.369Z,100274.31
2023-01-01T03:08:14.658Z,100270.56
2023-01-01T03:11:01.615Z,100282.78
2023-01-01T03:13:44.751Z,100277.50
2023-01-01T03:16:17.452Z,100278.06
2023-01-01T03:19:13.543Z,100279.78
2023-01-01T03:21:43.702Z,100280.06
2023-01-01T03:24:30.933Z,100286.09
2023-01-01T03:27:04.435Z,100284.50
2023-01-01T03:29:34.907Z,100286.53
2023-01-01T03:32:05.843Z,100302.03
2023-01-01T03:34:37.299Z,100310.97
2023-01-01T03:37:12.994Z,100318.56
2023-01-01T03:39:47.993Z,100304.50
2023-01-01T03:42:20.451Z,100328.06
2023-01-01T03:45:04.240Z,100309.53
2023-01-01T03:47:31.459Z,100316.53
2023-01-01T03:49:59.738Z,100317.53
2023-01-01T03:52:37.125Z,100312.06
2023-01-01T03:55:12.602Z,100295.25
2023-01-01T03:57:57.484Z,100296.09
2023-01-01T04:00:28.279Z,100272.94
2023-01-01T04:02:59.399Z,100279.97
2023-01-01T04:05:27.842Z,100260.72
2023-01-01T04:07:55.616Z,100237.16
2023-01-01T04:10:24.447Z,100229.25
2023-01-01T04:12:56.224Z,100203.09
2023-01-01T04:15:25.787Z,100182.84
2023-01-01T04:17:53.952Z,100170.91
2023-01-01T04:20:21.531Z,100151.25
2023-01-01T04:22:48.360Z,100127.63
2023-01-01T04:25:17.437Z,100107.66
2023-01-01T04:27:44.674Z,100097.50
2023-01-01T04:30:13.607Z,100086.16
2023-01-01T04:32:40.682Z,100056.38
2023-01-01T04:35:08.943Z,100061.09
2023-01-01T04:37:36.629Z,100022.09
2023-01-01T04:40:04.551Z,100021.09
2023-01-01T04:42:31.693Z,100010.09
2023-01-01T04:44:58.380Z,99982.56
2023-01-01T04:47:26.985Z,99975.94
2023-01-01T04:49:54.829Z,99966.06
2023-01-01T04:52:24.010Z,99965.78
2023-01-01T04:54:50.660Z,99966.06
2023-01-01T04:57:17.427Z,99955.59
2023-01-01T04:59:44.221Z,99965.81
2023-01-01T05:02:12.973Z,99967.25
2023-01-01T05:04:39.794Z,99945.59
2023-01-01T05:07:06.427Z,99971.25
2023-01-01T05:09:33.127Z,99973.38
2023-01-01T05:11:59.893Z,99988.88
2023-01-01T05:14:26.572Z,99996.06
2023-01-01T05:16:53.571Z,99987.28
2023-01-01T05:19:20.272Z,100004.78
2023-01-01T05:21:47.159Z,99986.00
2023-01-01T05:24:14.121Z,99965.53
2023-01-01T05:26:43.384Z,99950.88
2023-01-01T05:29:16.067Z,99930.22
2023-01-01T05:31:43.609Z,99940.13
2023-01-01T05:34:10.447Z,99935.69
2023-01-01T05:36:39.200Z,99932.25
2023-01-01T05:39:12.085Z,99932.53
2023-01-01T05:41:39.926Z,99927.66
2023-01-01T05:44:11.222Z,99930.25
2023-01-01T05:46:39.402Z,99932.25
2023-01-01T05:49:06.200Z,99944.72
2023-01-01T05:54:01.289Z,99940.84
2023-01-01T05:56:29.607Z,99948.16
2023-01-01T05:58:56.709Z,99943.44
2023-01-01T06:01:26.720Z,99941.84
2023-01-01T06:03:55.141Z,99947.72
2023-01-01T06:06:25.186Z,99962.09
2023-01-01T06:08:57.640Z,99962.09
2023-01-01T06:11:24.713Z,99970.81
2023-01-01T06:13:56.304Z,99984.16
2023-01-01T06:16:23.525Z,99981.00
2023-01-01T06:18:51.064Z,99987.75
2023-01-01T06:21:20.135Z,99993.50
2023-01-01T06:23:46.921Z,100007.38
2023-01-01T06:26:25.578Z,99997.06
2023-01-01T06:28:52.432Z,100013.97
2023-01-01T06:31:21.366Z,100027.03
2023-01-01T06:33:49.089Z,100039.06
2023-01-01T06:36:18.729Z,100047.81
2023-01-01T06:38:47.656Z,100051.97
2023-01-01T06:41:17.095Z,100068.06
2023-01-01T06:43:44.219Z,100077.94
2023-01-01T06:46:24.379Z,100089.38
2023-01-01T06:49:04.820Z,100079.34
2023-01-01T06:51:34.307Z,100085.47
2023-01-01T06:54:03.145Z,100065.81
2023-01-01T06:56:30.913Z,100058.66
2023-01-01T06:58:58.469Z,100071.13
2023-01-01T07:01:28.386Z,100083.56
2023-01-01T07:03:57.487Z,100088.34
2023-01-01T07:06:25.735Z,100081.72
2023-01-01T07:08:52.963Z,100068.28
2023-01-01T07:11:20.268Z,100076.56
2023-01-01T07:13:47.336Z,100079.56
2023-01-01T07:16:14.463Z,100090.47
2023-01-01T07:18:41.427Z,100098.63
2023-01-01T07:21:29.143Z,100104.22
2023-01-01T07:23:58.500Z,100110.28
2023-01-01T07:26:30.073Z,100111.13
2023-01-01T07:29:02.852Z,100124.00
2023-01-01T07:31:33.420Z,100100.41
2023-01-01T07:34:00.389Z,100117.47
2023-01-01T07:36:27.292Z,100127.78
2023-01-01T07:38:54.123Z,100139.41
2023-01-01T07:41:20.900Z,100145.00
2023-01-01T07:43:47.704Z,100161.34
2023-01-01T07:46:22.066Z,100151.59
2023-01-01T07:48:49.076Z,100143.00
2023-01-01T07:51:15.829Z,100157.34
2023-01-01T07:53:42.565Z,100147.34
2023-01-01T07:56:09.538Z,100158.34
2023-01-01T07:58:40.210Z,100160.22
2023-01-01T08:01:09.651Z,100194.84
2023-01-01T08:03:36.522Z,100199.28
2023-01-01T08:06:11.842Z,100195.28
2023-01-01T08:08:39.446Z,100209.91
2023-01-01T08:11:06.252Z,100218.19
2023-01-01T08:13:32.939Z,100232.53
2023-01-01T08:15:59.762Z,100229.97
2023-01-01T08:18:26.730Z,100256.19
2023-01-01T08:20:54.350Z,100263.75
2023-01-01T08:23:21.300Z,100257.97
2023-01-01T08:25:48.219Z,100260.56
2023-01-01T08:28:15.041Z,100274.47
2023-01-01T08:30:41.837Z,100276.91
2023-01-01T08:33:08.530Z,100276.78
2023-01-01T08:35:40.628Z,100299.22
2023-01-01T08:38:07.330Z,100307.53
2023-01-01T08:40:34.273Z,100309.00
2023-01-01T08:43:04.061Z,100336.38
2023-01-01T08:45:30.720Z,100342.81
2023-01-01T08:47:57.670Z,100358.06
2023-01-01T08:50:24.449Z,100357.16
2023-01-01T08:52:51.185Z,100372.69
2023-01-01T08:55:18.028Z,100386.16
2023-01-01T08:57:44.698Z,100395.94
2023-01-01T09:00:13.616Z,100410.41
2023-01-01T09:02:40.429Z,100434.81
2023-01-01T09:05:07.837Z,100439.06
2023-01-01T09:07:34.610Z,100451.97
2023-01-01T09:10:01.589Z,100448.38
2023-01-01T09:12:28.515Z,100453.88
2023-01-01T09:14:55.189Z,100478.41
2023-01-01T09:17:21.889Z,100496.34
2023-01-01T09:19:48.553Z,100522.03
2023-01-01T09:22:15.332Z,100549.53
2023-01-01T09:24:42.115Z,100539.97
2023-01-01T09:27:08.972Z,100566.00
2023-01-01T09:29:35.756Z,100573.91
2023-01-01T09:32:02.485Z,100601.38
2023-01-01T09:34:29.261Z,100632.06
2023-01-01T09:36:56.027Z,100641.25
2023-01-01T09:39:22.715Z,100644.56
2023-01-01T09:42:15.679Z,100677.41
2023-01-01T09:45:05.116Z,100686.91
2023-01-01T09:47:40.739Z,100703.25
2023-01-01T09:50:13.937Z,100717.03
2023-01-01T09:53:04.200Z,100717.13
2023-01-01T09:55:37.756Z,100724.97
2023-01-01T09:58:04.446Z,100753.06
2023-01-01T10:00:34.762Z,100752.56
2023-01-01T10:03:19.513Z,100750.09
2023-01-01T10:06:22.838Z,100756.78
2023-01-01T10:09:10.761Z,100803.44
2023-01-01T10:11:55.847Z,100807.16
2023-01-01T10:14:25.564Z,100818.53
2023-01-01T10:16:57.827Z,100832.78
2023-01-01T10:19:37.803Z,100842.81
2023-01-01T10:22:11.267Z,100848.25
2023-01-01T10:24:50.522Z,100847.91
2023-01-01T10:27:24.207Z,100840.22
2023-01-01T10:29:55.509Z,100842.19
2023-01-01T10:32:30.810Z,100866.81
2023-01-01T10:34:58.246Z,100870.00
2023-01-01T10:37:28.413Z,100842.69
2023-01-01T10:39:55.147Z,100874.84
2023-01-01T10:42:21.896Z,100887.47
2023-01-01T10:44:52.569Z,100884.75
2023-01-01T10:47:28.760Z,100881.03
2023-01-01T10:50:08.027Z,100888.06
2023-01-01T10:52:41.389Z,100883.63
2023-01-01T10:55:23.756Z,100882.41
2023-01-01T10:57:50.526Z,100899.72
2023-01-01T11:00:26.178Z,100898.47
2023-01-01T11:03:30.176Z,100898.88
2023-01-01T11:06:17.490Z,100889.81
2023-01-01T11:08:50.504Z,100883.88
2023-01-01T11:11:27.328Z,100916.19
2023-01-01T11:13:58.250Z,100932.00
2023-01-01T11:16:27.120Z,100929.81
2023-01-01T11:19:02.295Z,100935.88
2023-01-01T11:21:29.295Z,100915.06
2023-01-01T11:24:20.287Z,100922.72
2023-01-01T11:26:53.954Z,100929.06
2023-01-01T11:29:29.043Z,100919.00
2023-01-01T11:31:58.816Z,100920.25
2023-01-01T11:34:25.426Z,100941.78
2023-01-01T11:36:52.449Z,100937.31
2023-01-01T11:39:26.948Z,100951.19
2023-01-01T11:41:56.513Z,100954.66
2023-01-01T11:44:45.579Z,100969.91
2023-01-01T11:47:27.489Z,100978.81
2023-01-01T11:49:56.696Z,100975.09
2023-01-01T11:52:44.488Z,100979.44
2023-01-01T11:55:32.949Z,100961.50
2023-01-01T11:58:04.306Z,100969.75
2023-01-01T12:00:34.966Z,100978.44
2023-01-01T12:03:21.085Z,100981.44
2023-01-01T12:05:55.057Z,100966.84
2023-01-01T12:08:31.690Z,100974.75
2023-01-01T12:11:19.885Z,101010.56
2023-01-01T12:14:13.460Z,101006.09
2023-01-01T12:17:15.243Z,100991.97
2023-01-01T12:19:53.469Z,100989.94
2023-01-01T12:22:20.277Z,101008.00
2023-01-01T12:24:48.528Z,101003.66
2023-01-01T12:27:18.366Z,101029.19
2023-01-01T12:29:51.085Z,101025.84
2023-01-01T12:32:26.570Z,101028.69
2023-01-01T12:35:22.424Z,101038.25
2023-01-01T12:37:55.493Z,101044.69
2023-01-01T12:41:06.803Z,101049.75
2023-01-01T12:43:53.718Z,101062.41
2023-01-01T12:46:45.172Z,101062.16
2023-01-01T12:49:50.498Z,101062.63
2023-01-01T12:52:37.842Z,101058.16
2023-01-01T12:55:23.124Z,101078.75
2023-01-01T12:58:10.307Z,101079.63
2023-01-01T13:00:43.372Z,101083.34
2023-01-01T13:03:23.814Z,101074.50
2023-01-01T13:05:53.936Z,101080.84
2023-01-01T13:08:20.801Z,101091.72
2023-01-01T13:10:53.353Z,101105.44
2023-01-01T13:13:20.535Z,101109.81
2023-01-01T13:15:50.261Z,101115.94
2023-01-01T13:18:19.496Z,101117.78
2023-01-01T13:20:58.453Z,101122.38
2023-01-01T13:23:38.616Z,101127.16
2023-01-01T13:26:17.635Z,101140.03
2023-01-01T13:28:59.529Z,101123.78
2023-01-01T13:31:38.589Z,101139.03
2023-01-01T13:34:30.183Z,101138.94
2023-01-01T13:37:15.531Z,101123.69
2023-01-01T13:39:54.337Z,101138.50
2023-01-01T13:43:02.313Z,101133.91
2023-01-01T13:46:10.996Z,101144.47
2023-01-01T13:48:42.773Z,101157.56
2023-01-01T13:54:44.772Z,101159.31
2023-01-01T13:57:23.580Z,101171.50
2023-01-01T14:00:28.287Z,101186.00
2023-01-01T14:03:00.605Z,101187.19
2023-01-01T14:05:33.627Z,101200.22
2023-01-01T14:08:00.440Z,101200.03
2023-01-01T14:10:28.712Z,101203.75
2023-01-01T14:13:15.584Z,101211.25
2023-01-01T14:15:53.919Z,101201.34
2023-01-01T14:18:32.271Z,101216.47
2023-01-01T14:20:59.245Z,101216.59
2023-01-01T14:23:39.089Z,101220.31
2023-01-01T14:26:12.654Z,101234.75
2023-01-01T14:28:40.276Z,101240.13
2023-01-01T14:31:20.046Z,101235.09
2023-01-01T14:33:47.057Z,101243.28
2023-01-01T14:36:25.758Z,101243.28
2023-01-01T14:38:54.723Z,101252.50
2023-01-01T14:41:41.201Z,101257.53
2023-01-01T14:44:14.283Z,101257.28
2023-01-01T14:46:46.993Z,101272.66
2023-01-01T14:49:22.373Z,101267.63
2023-01-01T14:51:59.923Z,101279.72
2023-01-01T14:54:36.971Z,101287.88
2023-01-01T14:57:10.760Z,101289.28
2023-01-01T14:59:46.569Z,101282.28
2023-01-01T15:02:15.552Z,101278.69
2023-01-01T15:04:43.206Z,101302.63
2023-01-01T15:07:31.233Z,101290.00
2023-01-01T15:10:01.278Z,101301.63
2023-01-01T15:12:28.639Z,101296.94
2023-01-01T15:14:56.509Z,101298.28
2023-01-01T15:17:26.128Z,101307.84
2023-01-01T15:20:23.729Z,101310.00
2023-01-01T15:22:51.940Z,101322.78
2023-01-01T15:25:19.765Z,101322.22
2023-01-01T15:27:54.994Z,101329.53
2023-01-01T15:30:28.665Z,101334.59
2023-01-01T15:32:56.435Z,101334.47
2023-01-01T15:35:32.710Z,101336.56
2023-01-01T15:38:02.992Z,101326.88
2023-01-01T15:40:33.742Z,101338.72
2023-01-01T15:43:00.416Z,101339.78
2023-01-01T15:45:38.844Z,101333.19
2023-01-01T15:48:05.607Z,101334.38
2023-01-01T15:51:00.251Z,101326.28
2023-01-01T15:53:29.245Z,101315.34
2023-01-01T15:56:05.777Z,101322.16
2023-01-01T15:58:40.484Z,101326.63
2023-01-01T16:01:11.320Z,101328.44
2023-01-01T16:03:40.091Z,101324.41
2023-01-01T16:06:07.563Z,101324.91
2023-01-01T16:08:34.302Z,101324.16
2023-01-01T16:11:01.214Z,101328.41
2023-01-01T16:13:27.920Z,101333.34
2023-01-01T16:16:00.103Z,101321.88
2023-01-01T16:18:37.684Z,101323.63
2023-01-01T16:21:05.463Z,101338.91
2023-01-01T16:23:32.215Z,101331.81
2023-01-01T16:25:58.871Z,101343.25
2023-01-01T16:28:25.528Z,101333.94
2023-01-01T16:30:52.388Z,101341.09
2023-01-01T16:33:22.703Z,101331.94
2023-01-01T16:35:49.508Z,101330.75
2023-01-01T16:38:16.440Z,101326.81
2023-01-01T16:40:43.188Z,101338.19
2023-01-01T16:43:16.915Z,101345.50
2023-01-01T16:45:44.490Z,101323.00
2023-01-01T16:48:11.281Z,101317.91
2023-01-01T16:50:37.978Z,101314.22
2023-01-01T16:53:04.702Z,101317.63
2023-01-01T16:55:31.526Z,101313.16
2023-01-01T16:58:21.128Z,101318.72
2023-01-01T17:00:45.240Z,101321.84
2023-01-01T17:03:11.978Z,101315.44
2023-01-01T17:05:43.835Z,101330.19
2023-01-01T17:08:11.198Z,101317.16
2023-01-01T17:10:37.837Z,101322.69
2023-01-01T17:13:04.582Z,101329.38
2023-01-01T17:15:32.408Z,101326.09
2023-01-01T17:17:59.300Z,101319.28
2023-01-01T17:20:27.375Z,101322.84
2023-01-01T17:22:54.733Z,101325.31
2023-01-01T17:25:22.017Z,101312.44
2023-01-01T17:27:48.808Z,101299.69
2023-01-01T17:30:15.564Z,101305.53
2023-01-01T17:32:42.211Z,101310.78
2023-01-01T17:35:09.447Z,101317.88
2023-01-01T17:37:36.223Z,101313.50
2023-01-01T17:40:02.959Z,101313.06
2023-01-01T17:42:29.964Z,101310.91
2023-01-01T17:44:56.768Z,101314.44
2023-01-01T17:47:26.698Z,101306.31
2023-01-01T17:49:56.112Z,101314.41
2023-01-01T17:52:22.804Z,101319.34
2023-01-01T17:54:49.666Z,101317.69
2023-01-01T17:57:17.094Z,101326.44
2023-01-01T17:59:43.805Z,101319.66
2023-01-01T18:02:13.254Z,101317.72
2023-01-01T18:04:40.780Z,101318.88
2023-01-01T18:07:07.585Z,101330.81
2023-01-01T18:09:34.435Z,101318.69
2023-01-01T18:12:01.298Z,101322.03
2023-01-01T18:14:28.040Z,101320.59
2023-01-01T18:16:54.711Z,101331.09
2023-01-01T18:19:21.591Z,101332.63
2023-01-01T18:21:48.259Z,101330.63
2023-01-01T18:24:15.808Z,101332.44
2023-01-01T18:26:43.097Z,101319.94
2023-01-01T18:29:09.807Z,101328.09
2023-01-01T18:31:36.564Z,101326.53
2023-01-01T18:34:04.370Z,101323.31
2023-01-01T18:36:33.645Z,101320.06
2023-01-01T18:39:06.857Z,101323.44
2023-01-01T18:41:48.626Z,101315.28
2023-01-01T18:44:25.649Z,101324.56
2023-01-01T18:47:12.110Z,101321.44
2023-01-01T18:49:39.769Z,101313.81
2023-01-01T18:52:06.417Z,101315.66
2023-01-01T18:54:34.095Z,101313.06
2023-01-01T18:57:17.608Z,101311.97
2023-01-01T18:59:44.323Z,101311.56
2023-01-01T19:02:29.209Z,101299.72
2023-01-01T19:05:06.520Z,101297.41
2023-01-01T19:07:33.194Z,101297.63
2023-01-01T19:10:00.424Z,101293.72
2023-01-01T19:12:28.533Z,101295.22
2023-01-01T19:14:55.272Z,101298.41
2023-01-01T19:17:23.560Z,101292.59
2023-01-01T19:19:52.542Z,101281.63
2023-01-01T19:22:30.858Z,101274.28
2023-01-01T19:24:57.656Z,101256.22
2023-01-01T19:27:24.851Z,101265.50
2023-01-01T19:29:52.708Z,101271.25
2023-01-01T19:32:20.840Z,101267.16
2023-01-01T19:34:47.655Z,101268.47
2023-01-01T19:37:14.547Z,101262.31
2023-01-01T19:39:41.455Z,101257.44
2023-01-01T19:42:08.271Z,101243.50
2023-01-01T19:44:36.711Z,101249.13
2023-01-01T19:47:09.103Z,101251.19
2023-01-01T19:49:35.910Z,101234.50
2023-01-01T19:52:03.735Z,101226.91
2023-01-01T19:54:30.515Z,101228.09
2023-01-01T19:56:57.253Z,101225.41
2023-01-01T19:59:27.786Z,101224.44
2023-01-01T20:02:25.822Z,101234.03
2023-01-01T20:04:44.588Z,101226.47
2023-01-01T20:07:11.321Z,101211.31
2023-01-01T20:09:38.080Z,101216.56
2023-01-01T20:12:04.800Z,101200.25
2023-01-01T20:14:31.499Z,101207.75
2023-01-01T20:16:58.251Z,101199.31
2023-01-01T20:19:24.902Z,101202.50
2023-01-01T20:22:10.152Z,101192.88
2023-01-01T20:24:39.118Z,101190.88
2023-01-01T20:27:05.824Z,101191.09
2023-01-01T20:29:32.543Z,101174.69
2023-01-01T20:31:59.458Z,101175.28
2023-01-01T20:34:26.919Z,101166.16
2023-01-01T20:37:12.161Z,101160.06
2023-01-01T20:39:39.012Z,101153.16
2023-01-01T20:42:05.702Z,101155.81
2023-01-01T20:44:32.456Z,101146.03
2023-01-01T20:46:59.191Z,101142.78
2023-01-01T20:49:25.879Z,101119.81
2023-01-01T20:51:53.278Z,101120.09
2023-01-01T20:54:21.653Z,101124.94
2023-01-01T20:56:48.415Z,101111.97
2023-01-01T20:59:35.332Z,101103.03
2023-01-01T21:02:04.632Z,101104.22
2023-01-01T21:04:31.660Z,101100.34
2023-01-01T21:06:58.440Z,101101.28
2023-01-01T21:09:25.173Z,101098.59
2023-01-01T21:11:51.921Z,101099.78
2023-01-01T21:14:21.380Z,101090.03
2023-01-01T21:16:48.129Z,101105.41
2023-01-01T21:19:15.165Z,101107.81
2023-01-01T21:21:53.067Z,101095.44
2023-01-01T21:24:32.841Z,101092.50
2023-01-01T21:27:24.430Z,101088.50
2023-01-01T21:29:57.463Z,101086.97
2023-01-01T21:32:37.914Z,101079.03
2023-01-01T21:35:14.874Z,101061.56
2023-01-01T21:37:47.516Z,101040.19
2023-01-01T21:40:29.419Z,101034.97
2023-01-01T21:43:03.512Z,101037.25
2023-01-01T21:45:42.664Z,101038.22
2023-01-01T21:48:37.796Z,101045.53
2023-01-01T21:51:19.792Z,101044.09
2023-01-01T21:53:46.714Z,101036.97
2023-01-01T21:56:31.203Z,101032.94
2023-01-01T21:59:26.435Z,101013.72
2023-01-01T22:01:59.880Z,101008.84
2023-01-01T22:04:49.706Z,101009.81
2023-01-01T22:10:35.856Z,100999.50
2023-01-01T22:13:03.127Z,100994.88
2023-01-01T22:15:40.345Z,100992.47
2023-01-01T22:18:22.946Z,101001.03
2023-01-01T22:20:50.576Z,100989.97
2023-01-01T22:23:20.408Z,100981.91
2023-01-01T22:25:47.744Z,100978.22
2023-01-01T22:28:19.803Z,100973.47
2023-01-01T22:30:47.073Z,100963.34
2023-01-01T22:33:22.546Z,100961.59
2023-01-01T22:35:49.214Z,100957.59
2023-01-01T22:38:21.518Z,100955.06
2023-01-01T22:40:51.465Z,100950.19
2023-01-01T22:43:25.463Z,100942.78
2023-01-01T22:45:52.126Z,100946.81
2023-01-01T22:48:34.781Z,100921.72
2023-01-01T22:51:07.287Z,100914.16
2023-01-01T22:53:33.985Z,100905.13
2023-01-01T22:56:00.663Z,100893.50
2023-01-01T22:58:27.304Z,100881.44
2023-01-01T23:00:54.017Z,100869.38
2023-01-01T23:03:20.716Z,100848.75
2023-01-01T23:05:47.615Z,100832.69
2023-01-01T23:08:14.414Z,100829.84
2023-01-01T23:10:41.126Z,100815.53
2023-01-01T23:13:27.632Z,100800.75
2023-01-01T23:16:02.440Z,100792.66
2023-01-01T23:18:35.474Z,100783.63
2023-01-01T23:21:05.287Z,100770.16
2023-01-01T23:23:32.433Z,100755.09
2023-01-01T23:26:00.256Z,100737.81
2023-01-01T23:28:30.227Z,100718.16
2023-01-01T23:30:59.790Z,100701.88
2023-01-01T23:33:27.589Z,100692.16
2023-01-01T23:35:54.382Z,100685.84
2023-01-01T23:38:21.663Z,100663.06
2023-01-01T23:40:48.390Z,100651.75
2023-01-01T23:43:15.079Z,100643.41
2023-01-01T23:45:41.852Z,100646.00
2023-01-01T23:48:09.035Z,100621.91
2023-01-01T23:50:35.929Z,100616.72
2023-01-01T23:53:02.648Z,100599.13
2023-01-01T23:55:29.387Z,100598.91
2023-01-01T23:57:56.187Z,100581.97
